• Join FlightAware (Why Join?)
  • Login
  • US Flag 
07:42AM EST


 

Airport Tracker/Info


-or-


 

Live Flight TrackerFlight Track Log ✈ DAL268 ✈ 15-Jun-2013 ✈ KJFK - LLBG / TLV

Flight Track Log - Related Links

Times and Time Zones

All times are in EDT time to prevent confusion due to time zone crossing. See the DAL268 flight status page for this flight to view local times or setup timezone preferences in your user account.

Time Position Orientation Groundspeed Altitude Reporting Facility
EDT Latitude Longitude Course Direction KTS MPH feet Rate Location/Type
11:50PM 40.6370 -73.7800 261° West 2 2  Level FlightAware
11:52PM 40.6370 -73.7790 90° East 2 2  Level FlightAware
11:52PM 40.6380 -73.7790 360° North 2 2  Level FlightAware
11:54PM 40.6370 -73.7790 180° South 9 10  Level FlightAware
11:56PM 40.6360 -73.7790 180° South 2 2  Level FlightAware
11:58PM 40.5994 -73.4477 108° East  Level FlightAware Approximate
11:59PM 40.5833 -73.2673 90° East  Level FlightAware Approximate
12:00AM 40.5537 -73.0910 97° East  Level FlightAware Approximate
12:01AM 40.5673 -72.9142 72° East  Level FlightAware Approximate
12:02AM 40.6188 -72.7435 66° East  Level FlightAware Approximate
12:03AM 40.6360 -73.7760 90° East 22 25  Level FlightAware
12:03AM 40.6380 -73.7750 21° North 29 33  Level FlightAware
12:04AM 40.6400 -73.7740 21° North 29 33  Level FlightAware
12:04AM 40.6410 -73.7720 57° Northeast 27 31 60 Level FlightAware
12:05AM 40.6420 -73.7710 37° Northeast 29 33 60 Level FlightAware
12:06AM 40.6440 -73.7700 21° North 20 23 60 Level FlightAware
12:06AM 40.6450 -73.7700 360° North 16 18 60 Level FlightAware
12:06AM 40.6450 -73.7690 90° East 20 23 60 Level FlightAware
12:07AM 40.6470 -73.7690 360° North 31 36 60 Level FlightAware
12:07AM 40.6480 -73.7670 57° Northeast 21 24 120 Level FlightAware
12:08AM 40.6480 -73.7660 90° East 21 24 120 Level FlightAware
12:09AM 40.6470 -73.7660 180° South 12 14 180 Level FlightAware
12:09AM 40.6450 -73.7680 217° Southwest 61 70 240 Level FlightAware
12:10AM 40.6190 -73.7880 210° Southwest 183 211 400 900 Climbing FlightAware
12:10AM 40.5980 -73.8080 216° Southwest 196 226 1,200 1,560 Climbing FlightAware
12:11AM 40.5780 -73.8280 217° Southwest 216 249 1,900 1,200 Climbing FlightAware
12:11AM 40.5530 -73.8550 219° Southwest 245 282 2,300 780 Climbing FlightAware
12:12AM 40.5380 -73.8650 207° Southwest 259 298 2,500 1,260 Climbing FlightAware
12:12AM 40.5165 -73.8717 193° South 272 313 3,000 1,620 Climbing FlightAware ADS-B
12:12AM 40.5099 -73.8723 184° South 276 318 3,100 960 Climbing FlightAware ADS-B
12:12AM 40.5007 -73.8723 180° South 284 327 3,200 1,200 Climbing FlightAware ADS-B
12:12AM 40.4904 -73.8713 176° South 292 336 3,400 1,380 Climbing FlightAware ADS-B
12:12AM 40.4837 -73.8701 172° South 296 341 3,500 2,160 Climbing FlightAware ADS-B
12:12AM 40.4748 -73.8671 166° South 298 343 3,800 2,400 Climbing FlightAware ADS-B
12:13AM 40.4640 -73.8621 161° South 299 344 4,100 2,100 Climbing FlightAware ADS-B
12:13AM 40.4570 -73.8575 153° Southeast 302 348 4,300 2,160 Climbing FlightAware ADS-B
12:13AM 40.4499 -73.8522 150° Southeast 305 351 4,500 2,160 Climbing FlightAware ADS-B
12:13AM 40.4438 -73.8472 148° Southeast 306 352 4,700 1,980 Climbing FlightAware ADS-B
12:13AM 40.4388 -73.8428 146° Southeast 307 353 4,800 2,520 Climbing FlightAware ADS-B
12:13AM 40.4355 -73.8394 142° Southeast 307 353 5,000 2,520 Climbing FlightAware ADS-B
12:13AM 40.4315 -73.8345 137° Southeast 308 354 5,100 1,680 Climbing FlightAware ADS-B
12:13AM 40.4285 -73.8307 136° Southeast 308 354 5,200 1,980 Climbing FlightAware ADS-B
12:13AM 40.4253 -73.8266 136° Southeast 308 354 5,300 3,000 Climbing FlightAware ADS-B
12:13AM 40.4224 -73.8223 132° Southeast 309 356 5,500 2,520 Climbing FlightAware ADS-B
12:13AM 40.4198 -73.8178 127° Southeast 310 357 5,600 1,680 Climbing FlightAware ADS-B
12:13AM 40.4173 -73.8131 125° Southeast 311 358 5,700 1,980 Climbing FlightAware ADS-B
12:13AM 40.4152 -73.8081 119° Southeast 311 358 5,800 2,220 Climbing FlightAware ADS-B
12:13AM 40.4122 -73.7996 115° Southeast 312 359 6,000 1,980 Climbing FlightAware ADS-B
12:14AM 40.4100 -73.7907 108° East 313 360 6,100 1,680 Climbing FlightAware ADS-B
12:14AM 40.4088 -73.7852 106° East 314 361 6,200 1,980 Climbing FlightAware ADS-B
12:14AM 40.4077 -73.7795 104° East 316 364 6,300 1,320 Climbing FlightAware ADS-B
12:14AM 40.4063 -73.7682 99° East 319 367 6,400 1,320 Climbing FlightAware ADS-B
12:14AM 40.4057 -73.7623 98° East 322 371 6,500 1,500 Climbing FlightAware ADS-B
12:14AM 40.4052 -73.7525 94° East 325 374 6,600 2,400 Climbing FlightAware ADS-B
12:14AM 40.4050 -73.7329 91° East 323 372 7,100 2,760 Climbing FlightAware ADS-B
12:14AM 40.4053 -73.7232 88° East 321 369 7,300 3,000 Climbing FlightAware ADS-B
12:14AM 40.4072 -73.6981 84° East 317 365 8,000 2,640 Climbing FlightAware ADS-B
12:15AM 40.4108 -73.6716 80° East 318 366 8,500 1,740 Climbing FlightAware ADS-B
12:15AM 40.4154 -73.6490 75° East 322 371 8,800 1,500 Climbing FlightAware ADS-B
12:15AM 40.4221 -73.6184 74° East 329 379 9,200 1,680 Climbing FlightAware ADS-B
12:15AM 40.4306 -73.5859 71° East 335 386 9,700 1,980 Climbing FlightAware ADS-B
12:16AM 40.4457 -73.5278 71° East 340 391 10,800 1,260 Climbing FlightAware ADS-B
12:16AM 40.4632 -73.4555 72° East 374 430 11,100 1,020 Climbing FlightAware ADS-B
12:17AM 40.4886 -73.3336 75° East 388 447 12,300 1,500 Climbing FlightAware ADS-B
12:18AM 40.5093 -73.2190 77° East 432 497 13,600 1,680 Climbing FlightAware ADS-B
12:19AM 40.5286 -73.1426 72° East 445 512 14,500 2,160 Climbing FlightAware ADS-B
12:19AM 40.5540 -73.0260 74° East 449 517 16,300 2,040 Climbing FlightAware
12:20AM 40.5790 -72.9170 73° East 457 526 17,500 1,800 Climbing FlightAware
12:21AM 40.6070 -72.7960 73° East 465 535 18,900 1,800 Climbing FlightAware
12:21AM 40.6330 -72.6870 73° East 474 545 20,100 1,680 Climbing FlightAware
12:22AM 40.6508 -72.6117 73° East 481 554 20,800 1,560 Climbing FlightAware ADS-B
12:22AM 40.6714 -72.5213 73° East 488 562 21,600 1,440 Climbing FlightAware ADS-B
12:24AM 40.7180 -72.3160 73° East 502 578 23,300 1,380 Climbing FlightAware
12:24AM 40.7450 -72.1980 73° East 510 587 24,200 1,260 Climbing FlightAware
12:25AM 40.7740 -72.0720 73° East 518 596 25,100 1,200 Climbing FlightAware
12:26AM 40.8010 -71.9470 74° East 525 604 25,900 1,140 Climbing FlightAware
12:26AM 40.8124 -71.8978 73° East 527 606 26,200 1,140 Climbing FlightAware ADS-B
12:26AM 40.8331 -71.8046 74° East 532 612 26,800 1,140 Climbing FlightAware ADS-B
12:27AM 40.8550 -71.7049 74° East 532 612 27,400 420 Climbing FlightAware ADS-B
12:28AM 40.8820 -71.5880 73° East 535 616 27,400 1,200 Level FlightAware
12:28AM 40.9190 -71.4220 74° East 533 613 29,300 1,920 Climbing FlightAware
12:29AM 40.9600 -71.2940 67° East 525 604 30,300 1,380 Climbing FlightAware
12:30AM 41.0186 -71.1288 65° Northeast 519 597 31,600 1,260 Climbing FlightAware ADS-B
12:31AM 41.0560 -71.0200 65° Northeast 514 592 32,400 900 Climbing FlightAware
12:32AM 41.1040 -70.8820 65° Northeast 515 593 33,000 300 Climbing FlightAware
12:32AM 41.1510 -70.7450 65° Northeast 515 593 33,000  Level FlightAware
12:33AM 41.1870 -70.6350 66° East 514 592 33,000  Level FlightAware
12:34AM 41.2430 -70.4690 66° East 514 592 33,000  Level FlightAware
12:35AM 41.2720 -70.3800 67° East 514 592 33,000  Level FlightAware
12:39AM 41.5130 -69.6590 66° East 502 578 33,000  Level FlightAware
12:39AM 41.5440 -69.5670 66° East 502 578 33,000  Level FlightAware
12:40AM 41.5820 -69.4520 66° East 502 578 33,000  Level FlightAware
12:41AM 41.6180 -69.3450 66° East 502 578 33,000  Level FlightAware
12:41AM 41.6460 -69.2590 66° East 502 578 33,000  Level FlightAware
12:42AM 41.6860 -69.1400 66° East 502 578 33,000  Level FlightAware
12:43AM 41.7130 -69.0580 66° East 502 578 33,000  Level FlightAware
12:46AM 41.9030 -68.4620 67° East 500 575 33,000  Level FlightAware
12:46AM 41.9360 -68.3620 66° East 500 575 33,000  Level FlightAware
12:47AM 41.9760 -68.2410 66° East 500 575 33,000  Level FlightAware
12:48AM 42.0160 -68.1220 66° East 500 575 33,000  Level FlightAware
12:49AM 42.0440 -68.0350 67° East 500 575 33,000  Level FlightAware
12:49AM 42.0830 -67.9190 66° East 500 575 33,000  Level FlightAware
12:50AM 42.1150 -67.8200 66° East 500 575 33,000  Level FlightAware
12:51AM 42.1440 -67.7330 66° East 500 575 33,000  Level FlightAware
12:52AM 42.1840 -67.6110 66° East 500 575 33,000  Level FlightAware
12:52AM 42.2130 -67.5240 66° East 500 575 33,000  Level FlightAware
12:53AM 42.2500 -67.4130 66° East 500 575 33,000  Level FlightAware
12:54AM 42.3080 -67.2350 66° East 500 575 33,000  Level FlightAware
12:55AM 42.3380 -67.1450 66° East 500 575 33,000  Level FlightAware
12:55AM 42.3690 -67.0510 66° East 500 575 33,000  Level FlightAware
12:57AM 42.4833 -66.5667 66° East 510 587 33,000  Level Moncton Center
12:58AM 42.5167 -66.3833 76° East 510 587 33,000  Level Moncton Center
12:59AM 42.5833 -66.2167 61° Northeast 510 587 33,000  Level Moncton Center
01:00AM 42.6167 -66.0333 76° East 510 587 33,000  Level Moncton Center
01:01AM 42.6833 -65.8500 64° Northeast 510 587 33,000  Level Moncton Center
01:07AM 43.0160 -64.7160 64° Northeast 520 598 33,000  Level FlightAware
01:07AM 43.0510 -64.5870 70° East 520 598 33,000  Level FlightAware
01:08AM 43.0880 -64.4530 69° East 521 600 33,000  Level FlightAware
01:09AM 43.1140 -64.3530 70° East 521 600 33,000  Level FlightAware
01:10AM 43.1480 -64.2260 70° East 521 600 33,000  Level FlightAware
01:10AM 43.1730 -64.1340 70° East 521 600 33,000  Level FlightAware
01:11AM 43.2120 -63.9840 70° East 521 600 33,000  Level FlightAware
01:12AM 43.2380 -63.8880 70° East 521 600 33,000  Level FlightAware
01:12AM 43.2710 -63.7620 70° East 521 600 33,000  Level FlightAware
01:13AM 43.2970 -63.6660 70° East 521 600 33,000  Level FlightAware
01:14AM 43.3300 -63.5390 70° East 521 600 33,000  Level FlightAware
01:14AM 43.3560 -63.4410 70° East 521 600 33,000  Level FlightAware
01:16AM 43.4370 -63.1370 70° East 521 600 33,000  Level FlightAware
01:17AM 43.4620 -63.0380 71° East 521 600 33,000  Level FlightAware
01:18AM 43.4950 -62.9160 70° East 521 600 33,000  Level FlightAware
01:18AM 43.5833 -62.4833 70° East 550 633 33,000  Level Gander Center
01:19AM 43.6000 -62.3833 77° East 550 633 33,000  Level Gander Center
01:20AM 43.6500 -62.2500 63° Northeast 540 621 33,000  Level Moncton Center
01:21AM 43.7000 -62.0667 69° East 540 621 33,000  Level Moncton Center
01:21AM 43.7167 -62.0000 71° East 540 621 33,000  Level Gander Center
01:22AM 43.7667 -61.7833 72° East 540 621 33,000  Level Gander Center
01:23AM 43.8000 -61.6000 76° East 540 621 33,000  Level Gander Center
01:24AM 43.8333 -61.4833 68° East 540 621 33,000  Level Moncton Center
01:25AM 43.8667 -61.2667 78° East 530 610 33,000  Level Moncton Center
01:30AM 44.1630 -60.1380 78° East 548 631 33,000  Level FlightAware
01:31AM 44.1870 -60.0350 72° East 548 631 33,000  Level FlightAware
01:32AM 44.2400 -59.7900 73° East 555 639 33,000  Level FlightAware
01:33AM 44.2710 -59.6530 72° East 559 643 33,000  Level FlightAware
01:34AM 44.3130 -59.4590 73° East 559 643 33,000  Level FlightAware
01:34AM 44.3470 -59.3010 73° East 558 642 33,000  Level FlightAware
01:35AM 44.3750 -59.1760 73° East 562 647 33,000  Level FlightAware
01:36AM 44.4080 -59.0190 74° East 565 650 33,000  Level FlightAware
01:36AM 44.4400 -58.8690 73° East 567 652 33,000  Level FlightAware
01:37AM 44.4700 -58.7280 73° East 569 655 33,000  Level FlightAware
01:38AM 44.5040 -58.5690 73° East 569 655 33,000  Level FlightAware
01:39AM 44.5350 -58.4170 74° East 571 657 33,000  Level FlightAware
01:39AM 44.5660 -58.2710 73° East 573 659 33,000  Level FlightAware
01:40AM 44.5940 -58.1350 74° East 576 663 33,000  Level FlightAware
01:41AM 44.6270 -57.9730 74° East 577 664 33,000  Level FlightAware
01:41AM 44.6580 -57.8220 74° East 577 664 33,000  Level FlightAware
01:42AM 44.6870 -57.6760 74° East 576 663 33,000  Level FlightAware
01:43AM 44.7100 -57.5660 74° East 576 663 33,000  Level FlightAware
01:44AM 44.7400 -57.4190 74° East 576 663 33,000  Level FlightAware
01:44AM 44.7620 -57.3080 74° East 576 663 33,000  Level FlightAware
01:45AM 44.7920 -57.1610 74° East 576 663 33,000  Level FlightAware
01:46AM 44.8140 -57.0510 74° East 576 663 33,000  Level FlightAware
01:46AM 44.8660 -56.7600 76° East 573 659 33,000  Level FlightAware
01:47AM 44.8880 -56.6520 74° East 573 659 33,000  Level FlightAware
01:48AM 44.9200 -56.4860 75° East 574 661 33,000  Level FlightAware
01:48AM 44.9510 -56.3330 74° East 574 661 33,000  Level FlightAware
01:49AM 44.9730 -56.2220 74° East 574 661 33,000  Level FlightAware
01:50AM 45.0090 -56.0440 74° East 574 661 33,000  Level FlightAware
01:51AM 45.0330 -55.9250 74° East 574 661 33,000  Level FlightAware
01:51AM 45.0640 -55.7740 74° East 574 661 33,000  Level FlightAware
01:52AM 45.0860 -55.6640 74° East 574 661 33,000  Level FlightAware
01:53AM 45.1170 -55.5130 74° East 574 661 33,000  Level FlightAware
01:53AM 45.1390 -55.4020 74° East 574 661 33,000  Level FlightAware
01:54AM 45.1690 -55.2550 74° East 574 661 33,000  Level FlightAware
01:55AM 45.2390 -54.8130 77° East 567 652 33,000  Level FlightAware
01:56AM 45.2600 -54.7030 75° East 567 652 33,000  Level FlightAware
01:57AM 45.2970 -54.4870 76° East 565 650 33,000  Level FlightAware
01:57AM 45.3170 -54.3760 76° East 566 651 33,000  Level FlightAware
01:58AM 45.3450 -54.2260 75° East 566 651 33,000  Level FlightAware
01:59AM 45.3650 -54.1190 75° East 566 651 33,000  Level FlightAware
02:00AM 45.3930 -53.9720 75° East 566 651 33,000  Level FlightAware
02:00AM 45.4140 -53.8590 75° East 566 651 33,000  Level FlightAware
02:01AM 45.4420 -53.7120 75° East 566 651 33,000  Level FlightAware
02:02AM 45.4620 -53.6010 76° East 566 651 33,000  Level FlightAware
02:02AM 45.4900 -53.4540 75° East 566 651 33,000  Level FlightAware
02:03AM 45.5120 -53.3370 75° East 566 651 33,000  Level FlightAware
02:04AM 45.5390 -53.1900 75° East 566 651 33,000  Level FlightAware
02:04AM 45.5600 -53.0800 75° East 566 651 33,000  Level FlightAware
02:05AM 45.5930 -52.9040 75° East 566 651 33,000  Level FlightAware
02:06AM 45.6210 -52.7570 75° East 566 651 33,000  Level FlightAware
02:07AM 45.6420 -52.6430 75° East 566 651 33,000  Level FlightAware
02:11AM 45.6904 -51.8634 76° East  Level FlightAware Approximate
02:12AM 45.7243 -51.6625 76° East  Level FlightAware Approximate
02:13AM 45.7579 -51.4614 76° East  Level FlightAware Approximate
02:14AM 45.7910 -51.2601 77° East  Level FlightAware Approximate
02:15AM 45.8239 -51.0586 77° East  Level FlightAware Approximate
02:15AM 45.9167 -50.5000 77° East 570 656 33,000  Level Gander Center
02:16AM 45.8577 -50.8573 76° East  Level FlightAware Approximate
02:16AM 45.9333 -50.2500 84° East 570 656 33,000  Level Gander Center
02:17AM 45.8918 -50.6559 76° East  Level FlightAware Approximate
02:17AM 45.9667 -50.0500 76° East 570 656 33,000  Level Gander Center
02:18AM 45.9255 -50.4543 76° East  Level FlightAware Approximate
02:18AM 46.0167 -49.8167 73° East 570 656 33,000  Level Gander Center
02:19AM 45.9589 -50.2524 77° East  Level FlightAware Approximate
02:19AM 46.0667 -49.5833 73° East 570 656 33,000  Level Gander Center
02:20AM 45.9919 -50.0503 77° East  Level FlightAware Approximate
02:20AM 46.0000 -50.0000 70° East 543 625 33,000  Level ETMS Enhanced Traffic Management System
02:20AM 46.1167 -49.3833 70° East 570 656 33,000  Level Gander Center
02:21AM 46.1833 -49.1833 64° Northeast 570 656 33,000  Level Gander Center
02:22AM 46.2167 -48.9667 77° East 570 656 33,000  Level Gander Center
02:23AM 46.2833 -48.7333 67° East 560 644 33,000  Level Gander Center
02:24AM 46.3167 -48.5333 76° East 570 656 33,000  Level Gander Center
02:25AM 46.3833 -48.3000 67° East 580 667 33,000  Level Gander Center
02:26AM 46.4167 -48.1000 76° East 570 656 33,000  Level Gander Center
02:27AM 46.4833 -47.8667 67° East 570 656 33,000  Level Gander Center
02:28AM 46.5333 -47.6500 71° East 570 656 33,000  Level Gander Center
02:29AM 46.5833 -47.4333 71° East 570 656 33,000  Level Gander Center
02:30AM 46.6333 -47.2333 70° East 560 644 33,000  Level Gander Center
02:31AM 46.6667 -47.0167 77° East 560 644 33,000  Level Gander Center
02:32AM 46.7167 -46.7833 73° East 570 656 33,000  Level Gander Center
02:34AM 46.7889 -46.4580 72° East  Level FlightAware Approximate
02:41AM 47.0852 -45.0684 72° East  Level FlightAware Approximate
02:42AM 47.1261 -44.8687 73° East  Level FlightAware Approximate
02:43AM 47.1667 -44.6686 73° East  Level FlightAware Approximate
02:44AM 47.2069 -44.4682 73° East  Level FlightAware Approximate
02:45AM 47.2468 -44.2676 74° East  Level FlightAware Approximate
02:46AM 47.2864 -44.0666 74° East  Level FlightAware Approximate
02:47AM 47.3256 -43.8653 74° East  Level FlightAware Approximate
02:48AM 47.3644 -43.6637 74° East  Level FlightAware Approximate
02:49AM 47.4029 -43.4618 74° East  Level FlightAware Approximate
02:50AM 47.4410 -43.2597 74° East  Level FlightAware Approximate
02:51AM 47.4788 -43.0572 74° East  Level FlightAware Approximate
02:52AM 47.5162 -42.8545 75° East  Level FlightAware Approximate
02:53AM 47.5533 -42.6515 75° East  Level FlightAware Approximate
02:54AM 47.5900 -42.4481 75° East  Level FlightAware Approximate
02:55AM 47.6263 -42.2445 75° East  Level FlightAware Approximate
02:56AM 47.6623 -42.0407 75° East  Level FlightAware Approximate
02:57AM 47.6979 -41.8365 75° East  Level FlightAware Approximate
02:58AM 47.7332 -41.6321 76° East  Level FlightAware Approximate
02:59AM 47.7681 -41.4273 76° East  Level FlightAware Approximate
03:00AM 47.8026 -41.2224 76° East  Level FlightAware Approximate
03:01AM 47.8368 -41.0171 76° East  Level FlightAware Approximate
03:02AM 47.8705 -40.8116 76° East  Level FlightAware Approximate
03:03AM 47.9040 -40.6058 76° East  Level FlightAware Approximate
03:04AM 47.9370 -40.3997 76° East  Level FlightAware Approximate
03:05AM 47.9697 -40.1934 77° East  Level FlightAware Approximate
03:06AM 48.0019 -39.9867 78° East  Level FlightAware Approximate
03:06AM 48.0000 -40.0000 78° East 547 629 33,000  Level ETMS Enhanced Traffic Management System
03:07AM 48.0314 -39.7790 78° East  Level FlightAware Approximate
03:08AM 48.0604 -39.5711 78° East  Level FlightAware Approximate
03:09AM 48.0891 -39.3630 78° East  Level FlightAware Approximate
03:10AM 48.1175 -39.1546 78° East  Level FlightAware Approximate
03:11AM 48.1454 -38.9460 79° East  Level FlightAware Approximate
03:12AM 48.2458 -38.2136 79° East 547 629 33,000  Level FlightAware Transoceanic
03:13AM 48.2745 -37.9892 79° East 547 629 33,000  Level FlightAware Transoceanic
03:14AM 48.3029 -37.7645 79° East 547 629 33,000  Level FlightAware Transoceanic
03:15AM 48.3307 -37.5395 80° East 547 629 33,000  Level FlightAware Transoceanic
03:16AM 48.3582 -37.3143 80° East 547 629 33,000  Level FlightAware Transoceanic
03:17AM 48.3852 -37.0888 80° East 547 629 33,000  Level FlightAware Transoceanic
03:18AM 48.4118 -36.8631 80° East 547 629 33,000  Level FlightAware Transoceanic
03:19AM 48.4379 -36.6372 80° East 547 629 33,000  Level FlightAware Transoceanic
03:20AM 48.4636 -36.4110 80° East 547 629 33,000  Level FlightAware Transoceanic
03:21AM 48.4888 -36.1847 81° East 547 629 33,000  Level FlightAware Transoceanic
03:22AM 48.5136 -35.9580 81° East 547 629 33,000  Level FlightAware Transoceanic
03:23AM 48.5380 -35.7312 81° East 547 629 33,000  Level FlightAware Transoceanic
03:24AM 48.5619 -35.5042 81° East 547 629 33,000  Level FlightAware Transoceanic
03:25AM 48.5854 -35.2769 81° East 547 629 33,000  Level FlightAware Transoceanic
03:26AM 48.6084 -35.0494 81° East 547 629 33,000  Level FlightAware Transoceanic
03:27AM 48.6309 -34.8218 82° East 547 629 33,000  Level FlightAware Transoceanic
03:28AM 48.6530 -34.5939 82° East 547 629 33,000  Level FlightAware Transoceanic
03:29AM 48.6747 -34.3658 82° East 547 629 33,000  Level FlightAware Transoceanic
03:30AM 48.6959 -34.1376 82° East 547 629 33,000  Level FlightAware Transoceanic
03:31AM 48.7167 -33.9091 82° East 547 629 33,000  Level FlightAware Transoceanic
03:32AM 48.7370 -33.6805 82° East 547 629 33,000  Level FlightAware Transoceanic
03:33AM 48.7569 -33.4516 83° East 547 629 33,000  Level FlightAware Transoceanic
03:34AM 48.7763 -33.2226 83° East 547 629 33,000  Level FlightAware Transoceanic
03:35AM 48.7952 -32.9935 83° East 547 629 33,000  Level FlightAware Transoceanic
03:36AM 48.8137 -32.7641 83° East 547 629 33,000  Level FlightAware Transoceanic
03:37AM 48.8318 -32.5346 83° East 547 629 33,000  Level FlightAware Transoceanic
03:38AM 48.8493 -32.3049 83° East 547 629 33,000  Level FlightAware Transoceanic
03:39AM 48.8665 -32.0751 84° East 547 629 33,000  Level FlightAware Transoceanic
03:40AM 48.8831 -31.8451 84° East 547 629 33,000  Level FlightAware Transoceanic
03:41AM 48.8994 -31.6149 84° East 547 629 33,000  Level FlightAware Transoceanic
03:42AM 48.9151 -31.3846 84° East 547 629 33,000  Level FlightAware Transoceanic
03:43AM 48.9304 -31.1542 84° East 547 629 33,000  Level FlightAware Transoceanic
03:44AM 48.9453 -30.9236 84° East 547 629 33,000  Level FlightAware Transoceanic
03:45AM 48.9596 -30.6929 85° East 547 629 33,000  Level FlightAware Transoceanic
03:46AM 48.9735 -30.4621 85° East 547 629 33,000  Level FlightAware Transoceanic
03:47AM 48.9870 -30.2311 85° East 547 629 33,000  Level FlightAware Transoceanic
03:48AM 48.9991 -30.0158 85° East  Level FlightAware Approximate
03:49AM 49.0109 -29.8005 85° East  Level FlightAware Approximate
03:50AM 48.9890 -29.8165 95° East  Level FlightAware Approximate
03:51AM 48.9757 -29.6015 95° East  Level FlightAware Approximate
03:51AM 49.0000 -30.0000 95° East 547 629 33,000  Level ETMS Enhanced Traffic Management System
03:52AM 48.9620 -29.3866 95° East  Level FlightAware Approximate
03:53AM 48.9479 -29.1725 96° East  Level FlightAware Approximate
03:54AM 48.9335 -28.9585 96° East  Level FlightAware Approximate
03:55AM 48.9186 -28.7447 96° East  Level FlightAware Approximate
03:56AM 48.9040 -28.5309 96° East  Level FlightAware Approximate
03:57AM 48.8831 -28.1549 96° East 547 629 33,000  Level FlightAware Transoceanic
03:58AM 48.8665 -27.9249 96° East 547 629 33,000  Level FlightAware Transoceanic
03:59AM 48.8493 -27.6951 97° East 547 629 33,000  Level FlightAware Transoceanic
04:00AM 48.8318 -27.4654 97° East 547 629 33,000  Level FlightAware Transoceanic
04:01AM 48.8137 -27.2359 97° East 547 629 33,000  Level FlightAware Transoceanic
04:02AM 48.7952 -27.0065 97° East 547 629 33,000  Level FlightAware Transoceanic
04:03AM 48.7763 -26.7774 97° East 547 629 33,000  Level FlightAware Transoceanic
04:04AM 48.7569 -26.5484 97° East 547 629 33,000  Level FlightAware Transoceanic
04:05AM 48.7370 -26.3195 98° East 547 629 33,000  Level FlightAware Transoceanic
04:06AM 48.7167 -26.0909 98° East 547 629 33,000  Level FlightAware Transoceanic
04:07AM 48.6959 -25.8624 98° East 547 629 33,000  Level FlightAware Transoceanic
04:08AM 48.6747 -25.6342 98° East 547 629 33,000  Level FlightAware Transoceanic
04:09AM 48.6530 -25.4061 98° East 547 629 33,000  Level FlightAware Transoceanic
04:10AM 48.6309 -25.1782 98° East 547 629 33,000  Level FlightAware Transoceanic
04:11AM 48.6084 -24.9506 99° East 547 629 33,000  Level FlightAware Transoceanic
04:12AM 48.5854 -24.7231 99° East 547 629 33,000  Level FlightAware Transoceanic
04:13AM 48.5619 -24.4958 99° East 547 629 33,000  Level FlightAware Transoceanic
04:14AM 48.5380 -24.2688 99° East 547 629 33,000  Level FlightAware Transoceanic
04:15AM 48.5136 -24.0420 99° East 547 629 33,000  Level FlightAware Transoceanic
04:16AM 48.4888 -23.8153 99° East 547 629 33,000  Level FlightAware Transoceanic
04:17AM 48.4636 -23.5890 100° East 547 629 33,000  Level FlightAware Transoceanic
04:18AM 48.4379 -23.3628 100° East 547 629 33,000  Level FlightAware Transoceanic
04:19AM 48.4118 -23.1369 100° East 547 629 33,000  Level FlightAware Transoceanic
04:20AM 48.3852 -22.9112 100° East 547 629 33,000  Level FlightAware Transoceanic
04:21AM 48.3582 -22.6857 100° East 547 629 33,000  Level FlightAware Transoceanic
04:22AM 48.3307 -22.4605 100° East 547 629 33,000  Level FlightAware Transoceanic
04:23AM 48.3029 -22.2355 101° East 547 629 33,000  Level FlightAware Transoceanic
04:24AM 48.2745 -22.0108 101° East 547 629 33,000  Level FlightAware Transoceanic
04:25AM 48.2458 -21.7864 101° East 547 629 33,000  Level FlightAware Transoceanic
04:26AM 48.2166 -21.5621 101° East 547 629 33,000  Level FlightAware Transoceanic
04:27AM 48.1869 -21.3382 101° East 547 629 33,000  Level FlightAware Transoceanic
04:28AM 48.1568 -21.1145 101° East 547 629 33,000  Level FlightAware Transoceanic
04:29AM 48.1263 -20.8910 102° East 547 629 33,000  Level FlightAware Transoceanic
04:30AM 48.0954 -20.6679 102° East 547 629 33,000  Level FlightAware Transoceanic
04:31AM 48.0640 -20.4450 102° East 547 629 33,000  Level FlightAware Transoceanic
04:32AM 48.0322 -20.2223 102° East 547 629 33,000  Level FlightAware Transoceanic
04:33AM 48.0023 -20.0159 102° East  Level FlightAware Approximate
04:34AM 47.9720 -19.8098 102° East  Level FlightAware Approximate
04:35AM 48.0030 -19.8215 89° East  Level FlightAware Approximate
04:36AM 48.0062 -19.6105 89° East  Level FlightAware Approximate
04:37AM 48.0090 -19.3993 89° East  Level FlightAware Approximate
04:38AM 48.0114 -19.1882 89° East  Level FlightAware Approximate
04:39AM 48.0134 -18.9770 89° East  Level FlightAware Approximate
04:40AM 48.0150 -18.7659 89° East  Level FlightAware Approximate
04:41AM 48.0163 -18.5547 89° East  Level FlightAware Approximate
04:42AM 48.0171 -18.3435 90° East  Level FlightAware Approximate
04:43AM 48.0176 -18.1323 90° East  Level FlightAware Approximate
04:44AM 48.0177 -17.9211 90° East  Level FlightAware Approximate
04:45AM 48.0173 -17.7099 90° East  Level FlightAware Approximate
04:46AM 48.0167 -17.4987 90° East  Level FlightAware Approximate
04:47AM 48.0174 -17.2875 90° East  Level FlightAware Approximate
04:48AM 48.0177 -17.0763 90° East  Level FlightAware Approximate
04:49AM 48.0176 -16.8651 90° East  Level FlightAware Approximate
04:50AM 48.0171 -16.6539 90° East  Level FlightAware Approximate
04:51AM 48.0162 -16.4427 90° East  Level FlightAware Approximate
04:52AM 48.0150 -16.2316 90° East  Level FlightAware Approximate
04:53AM 48.0134 -16.0204 91° East  Level FlightAware Approximate
04:54AM 48.0113 -15.8092 91° East  Level FlightAware Approximate
04:55AM 48.0089 -15.5981 91° East  Level FlightAware Approximate
04:56AM 48.0061 -15.3870 91° East  Level FlightAware Approximate
04:57AM 48.0029 -15.1759 91° East  Level FlightAware Approximate
04:58AM 47.9955 -14.9655 101° East  Level FlightAware Approximate
04:59AM 47.9683 -14.7584 101° East  Level FlightAware Approximate
05:00AM 47.9407 -14.5515 101° East  Level FlightAware Approximate
05:01AM 47.9127 -14.3448 101° East  Level FlightAware Approximate
05:02AM 47.8844 -14.1384 101° East  Level FlightAware Approximate
05:03AM 47.8557 -13.9322 102° East  Level FlightAware Approximate
05:04AM 47.8266 -13.7262 102° East  Level FlightAware Approximate
05:05AM 47.7972 -13.5205 102° East  Level FlightAware Approximate
05:06AM 47.7674 -13.3150 102° East  Level FlightAware Approximate
05:07AM 47.7372 -13.1097 102° East  Level FlightAware Approximate
05:08AM 47.7067 -12.9047 102° East  Level FlightAware Approximate
05:09AM 47.6758 -12.6999 103° East  Level FlightAware Approximate
05:10AM 47.6445 -12.4953 103° East  Level FlightAware Approximate
05:11AM 47.6129 -12.2910 103° East  Level FlightAware Approximate
05:12AM 47.5809 -12.0870 103° East  Level FlightAware Approximate
05:13AM 47.5485 -11.8832 103° East  Level FlightAware Approximate
05:14AM 47.5158 -11.6796 103° East  Level FlightAware Approximate
05:15AM 47.4827 -11.4763 103° East  Level FlightAware Approximate
05:16AM 47.4493 -11.2733 104° East  Level FlightAware Approximate
05:17AM 47.4155 -11.0705 104° East  Level FlightAware Approximate
05:18AM 47.3814 -10.8680 104° East  Level FlightAware Approximate
05:19AM 47.3469 -10.6658 104° East  Level FlightAware Approximate
05:20AM 47.3120 -10.4638 104° East  Level FlightAware Approximate
05:21AM 47.2768 -10.2620 104° East  Level FlightAware Approximate
05:22AM 47.2412 -10.0606 105° East  Level FlightAware Approximate
05:23AM 47.2053 -9.8594 105° East  Level FlightAware Approximate
05:24AM 47.1690 -9.6585 105° East  Level FlightAware Approximate
05:25AM 47.1324 -9.4579 105° East  Level FlightAware Approximate
05:26AM 47.0955 -9.2575 105° East  Level FlightAware Approximate
05:27AM 47.0581 -9.0575 105° East  Level FlightAware Approximate
05:28AM 47.0205 -8.8577 105° East  Level FlightAware Approximate
05:29AM 47.0003 -8.6546 90° East  Level FlightAware Approximate
05:30AM 47.0006 -8.4468 90° East  Level FlightAware Approximate
05:31AM 47.0005 -8.2396 90° East  Level FlightAware Approximate
05:32AM 47.0001 -8.0325 90° East  Level FlightAware Approximate
05:33AM 46.9843 -7.8269 98° East  Level FlightAware Approximate
05:33AM 46.8660 -7.3020 98° East 528 608 33,000  Level FlightAware
05:33AM 46.8430 -7.1330 101° East 530 610 33,000  Level FlightAware
05:34AM 46.9653 -7.6217 98° East  Level FlightAware Approximate
05:34AM 46.8230 -6.9860 101° East 530 610 33,000  Level FlightAware
05:35AM 46.7970 -6.8080 102° East 528 608 33,000  Level FlightAware
05:36AM 46.7770 -6.6660 102° East 527 606 33,000  Level FlightAware
05:36AM 46.7620 -6.5580 101° East 527 606 33,000  Level FlightAware
05:37AM 46.7330 -6.3640 102° East 526 605 33,000  Level FlightAware
05:38AM 46.7180 -6.2640 102° East 526 605 33,000 540 Level FlightAware
05:38AM 46.6880 -6.0660 102° East 527 606 33,800 1,260 Climbing FlightAware
05:39AM 46.6680 -5.9320 102° East 523 602 34,800 840 Climbing FlightAware
05:40AM 46.6440 -5.7760 103° East 529 609 35,000 120 Climbing FlightAware
05:40AM 46.6240 -5.6410 102° East 528 608 35,000  Level FlightAware
05:41AM 46.6000 -5.4930 103° East 526 605 35,000  Level FlightAware
05:42AM 46.5760 -5.3410 103° East 527 606 35,000  Level FlightAware
05:43AM 46.5550 -5.2070 103° East 526 605 35,000  Level FlightAware
05:43AM 46.5310 -5.0520 103° East 526 605 35,000  Level FlightAware
05:44AM 46.5090 -4.9150 103° East 524 603 35,000  Level FlightAware
05:45AM 46.4840 -4.7650 104° East 523 602 35,000  Level FlightAware
05:46AM 46.4720 -4.6900 103° East 522 601 35,000  Level FlightAware
05:46AM 46.4270 -4.4210 104° East 523 602 35,000  Level FlightAware
05:47AM 46.4040 -4.2780 103° East 523 602 35,000  Level FlightAware
05:48AM 46.3800 -4.1390 104° East 523 602 35,000  Level FlightAware
05:49AM 46.3550 -3.9890 104° East 524 603 35,000  Level FlightAware
05:49AM 46.3310 -3.8530 104° East 524 603 35,000  Level FlightAware
05:50AM 46.3050 -3.7000 104° East 524 603 35,000  Level FlightAware
05:51AM 46.2800 -3.5580 104° East 524 603 35,000  Level FlightAware
05:51AM 46.2560 -3.4220 104° East 525 604 35,000  Level FlightAware
05:52AM 46.2320 -3.2870 104° East 524 603 35,000  Level FlightAware
05:53AM 46.2080 -3.1510 104° East 524 603 35,000  Level FlightAware
05:53AM 46.1810 -3.0020 105° East 525 604 35,000  Level FlightAware
05:54AM 46.1560 -2.8600 104° East 524 603 35,000  Level FlightAware
05:55AM 46.1290 -2.7150 105° East 523 602 35,000  Level FlightAware
05:56AM 46.0960 -2.5370 105° East 522 601 35,000  Level FlightAware
05:57AM 46.0650 -2.3660 105° East 521 600 35,000  Level FlightAware
05:57AM 46.0390 -2.2330 106° East 522 601 35,000  Level FlightAware
05:58AM 46.0120 -2.0850 105° East 523 602 35,000  Level FlightAware
05:59AM 45.9840 -1.9380 105° East 523 602 35,000  Level FlightAware
05:59AM 45.9560 -1.7970 106° East 525 604 35,000  Level FlightAware
06:00AM 45.9410 -1.6650 99° East 529 609 35,000  Level FlightAware
06:01AM 45.9160 -1.4150 98° East 530 610 35,000  Level FlightAware
06:02AM 45.9000 -1.2800 100° East 528 608 35,000  Level FlightAware
06:03AM 45.8780 -1.0890 99° East 529 609 35,000  Level FlightAware
06:04AM 45.8610 -0.9300 99° East 530 610 35,000  Level FlightAware
06:04AM 45.8460 -0.7950 99° East 530 610 35,000  Level FlightAware
06:05AM 45.8310 -0.6560 99° East 530 610 35,000  Level FlightAware
06:06AM 45.8140 -0.5000 99° East 531 611 35,000  Level FlightAware
06:06AM 45.7960 -0.3440 99° East 531 611 35,000  Level FlightAware
06:07AM 45.7800 -0.2050 99° East 531 611 35,000  Level FlightAware
06:08AM 45.7640 -0.0660 99° East 532 612 35,000  Level FlightAware
06:08AM 45.7480 0.0730 99° East 531 611 35,000  Level FlightAware
06:09AM 45.7300 0.2330 99° East 532 612 35,000  Level FlightAware
06:10AM 45.7130 0.3710 100° East 531 611 35,000  Level FlightAware
06:10AM 45.6990 0.4920 99° East 530 610 35,000  Level FlightAware
06:11AM 45.6800 0.6480 100° East 528 608 35,000  Level FlightAware
06:12AM 45.6630 0.7850 100° East 528 608 35,000  Level FlightAware
06:13AM 45.6440 0.9370 100° East 528 608 35,000  Level FlightAware
06:13AM 45.6290 1.0640 100° East 530 610 35,000  Level FlightAware
06:14AM 45.6080 1.2330 100° East 531 611 35,000  Level FlightAware
06:15AM 45.5930 1.3720 99° East 531 611 35,000  Level FlightAware
06:15AM 45.5660 1.5510 102° East 532 612 35,000  Level FlightAware
06:16AM 45.5470 1.7020 100° East 531 611 35,000  Level FlightAware
06:17AM 45.5260 1.8570 101° East 530 610 35,000  Level FlightAware
06:18AM 45.4940 1.9910 109° East 521 600 35,000  Level FlightAware
06:18AM 45.4560 2.1360 110° East 522 601 35,000  Level FlightAware
06:19AM 45.4250 2.2620 109° East 523 602 35,000  Level FlightAware
06:20AM 45.3910 2.4020 109° East 523 602 35,000  Level FlightAware
06:20AM 45.3570 2.5380 110° East 523 602 35,000  Level FlightAware
06:21AM 45.3330 2.6420 108° East 519 597 35,000  Level FlightAware
06:22AM 45.2810 2.8520 109° East 522 601 35,000  Level FlightAware
06:23AM 45.2530 2.9590 110° East 522 601 35,000  Level FlightAware
06:24AM 45.2190 3.0900 110° East 522 601 35,000  Level FlightAware
06:24AM 45.1720 3.2650 111° Southeast 521 600 35,000  Level FlightAware
06:25AM 45.1410 3.3800 111° Southeast 520 598 35,000  Level FlightAware
06:26AM 45.1030 3.5270 110° East 519 597 35,000  Level FlightAware
06:26AM 45.0670 3.6630 111° Southeast 518 596 35,000  Level FlightAware
06:27AM 45.0380 3.7710 111° Southeast 517 595 35,000  Level FlightAware
06:28AM 44.9780 3.9530 115° Southeast 511 588 35,000  Level FlightAware
06:29AM 44.9040 4.1650 116° Southeast 505 581 35,000  Level FlightAware
06:30AM 44.8640 4.2820 116° Southeast 505 581 35,000  Level FlightAware
06:30AM 44.8190 4.4150 115° Southeast 508 585 35,000  Level FlightAware
06:31AM 44.7760 4.5340 117° Southeast 508 585 35,000  Level FlightAware
06:32AM 44.7280 4.6700 116° Southeast 510 587 35,000  Level FlightAware
06:32AM 44.6920 4.7670 118° Southeast 509 586 35,000  Level FlightAware
06:33AM 44.6430 4.9050 116° Southeast 507 583 35,000  Level FlightAware
06:34AM 44.5930 5.0270 120° Southeast 504 580 35,000  Level FlightAware
06:35AM 44.5430 5.1420 121° Southeast 503 579 35,000  Level FlightAware
06:35AM 44.4890 5.2640 122° Southeast 498 573 35,000  Level FlightAware
06:36AM 44.4390 5.3770 122° Southeast 498 573 35,000  Level FlightAware
06:37AM 44.3840 5.5010 122° Southeast 498 573 35,000  Level FlightAware
06:37AM 44.3340 5.6140 122° Southeast 499 574 35,000  Level FlightAware
06:38AM 44.2850 5.7240 122° Southeast 499 574 35,000  Level FlightAware
06:39AM 44.2380 5.8290 122° Southeast 500 575 35,000  Level FlightAware
06:40AM 44.1810 5.9590 121° Southeast 503 579 35,000  Level FlightAware
06:40AM 44.1360 6.0610 122° Southeast 499 574 35,000  Level FlightAware
06:41AM 44.0780 6.1910 122° Southeast 499 574 35,000  Level FlightAware
06:42AM 44.0360 6.2840 122° Southeast 500 575 35,000  Level FlightAware
06:42AM 43.9760 6.4190 122° Southeast 500 575 35,000  Level FlightAware
06:43AM 43.9100 6.5640 122° Southeast 505 581 35,000  Level FlightAware
06:44AM 43.8520 6.6920 122° Southeast 505 581 35,000  Level FlightAware
06:45AM 43.8130 6.7770 122° Southeast 505 581 35,000  Level FlightAware
06:45AM 43.7470 6.9250 122° Southeast 503 579 35,000  Level FlightAware
06:46AM 43.6930 7.0450 122° Southeast 502 578 35,000  Level FlightAware
06:47AM 43.6470 7.1450 122° Southeast 502 578 35,000  Level FlightAware
06:48AM 43.5940 7.2650 121° Southeast 502 578 35,000  Level FlightAware
06:48AM 43.5390 7.3870 122° Southeast 502 578 35,000  Level FlightAware
06:49AM 43.4880 7.4980 122° Southeast 500 575 35,000  Level FlightAware
06:50AM 43.4390 7.6060 122° Southeast 500 575 35,000  Level FlightAware
06:50AM 43.3890 7.7170 122° Southeast 500 575 35,000  Level FlightAware
06:51AM 43.3350 7.8350 122° Southeast 499 574 35,000  Level FlightAware
06:52AM 43.2840 7.9470 122° Southeast 498 573 35,000  Level FlightAware
06:52AM 43.2310 8.0620 122° Southeast 497 572 35,000  Level FlightAware
06:53AM 43.1810 8.1680 123° Southeast 498 573 35,000  Level FlightAware
06:54AM 43.1270 8.2860 122° Southeast 499 574 35,000  Level FlightAware
06:55AM 43.0760 8.3990 122° Southeast 498 573 35,000  Level FlightAware
06:55AM 43.0290 8.5020 122° Southeast 497 572 35,000  Level FlightAware
06:56AM 42.9780 8.6140 122° Southeast 495 570 35,000  Level FlightAware
06:57AM 42.9240 8.7270 123° Southeast 494 568 35,000  Level FlightAware
06:57AM 42.8710 8.8430 122° Southeast 494 568 35,000  Level FlightAware
06:58AM 42.8210 8.9510 122° Southeast 495 570 35,000  Level FlightAware
06:59AM 42.7660 9.0660 123° Southeast 495 570 35,000  Level FlightAware
06:59AM 42.7190 9.1660 123° Southeast 496 571 35,000  Level FlightAware
07:00AM 42.6600 9.2920 122° Southeast 492 566 35,000  Level FlightAware
07:01AM 42.6100 9.3970 123° Southeast 493 567 35,000  Level FlightAware
07:02AM 42.5620 9.5190 118° Southeast 500 575 35,000  Level FlightAware
07:02AM 42.5290 9.6360 111° Southeast 502 578 35,000  Level FlightAware
07:03AM 42.4900 9.7670 112° Southeast 498 573 35,000  Level FlightAware
07:04AM 42.4590 9.8820 110° East 499 574 35,000  Level FlightAware
07:04AM 42.4040 9.9970 123° Southeast 494 568 35,000  Level FlightAware
07:05AM 42.3500 10.1060 124° Southeast 494 568 35,000  Level FlightAware
07:06AM 42.3010 10.2120 122° Southeast 499 574 35,000  Level FlightAware
07:06AM 42.2530 10.3180 121° Southeast 500 575 35,000  Level FlightAware
07:07AM 42.1900 10.4490 123° Southeast 501 577 35,000  Level FlightAware
07:08AM 42.1390 10.5560 123° Southeast 502 578 35,000  Level FlightAware
07:09AM 42.0810 10.6730 124° Southeast 503 579 35,000  Level FlightAware
07:09AM 42.0300 10.7750 124° Southeast 503 579 35,000  Level FlightAware
07:10AM 41.9850 10.8670 123° Southeast 500 575 35,000  Level FlightAware
07:11AM 41.8880 11.0620 124° Southeast 500 575 35,000  Level FlightAware
07:12AM 41.8290 11.1790 124° Southeast 500 575 35,000  Level FlightAware
07:13AM 41.7770 11.2830 124° Southeast 500 575 35,000  Level FlightAware
07:13AM 41.7240 11.3890 124° Southeast 501 577 35,000  Level FlightAware
07:14AM 41.6660 11.5030 124° Southeast 502 578 35,000  Level FlightAware
07:15AM 41.5860 11.6610 124° Southeast 506 582 35,000  Level FlightAware
07:16AM 41.5040 11.8210 124° Southeast 507 583 35,000  Level FlightAware
07:17AM 41.4450 11.9370 124° Southeast 500 575 35,000  Level FlightAware
07:18AM 41.3900 12.0440 124° Southeast 499 574 35,000  Level FlightAware
07:18AM 41.3370 12.1460 125° Southeast 499 574 35,000  Level FlightAware
07:19AM 41.2770 12.2630 124° Southeast 498 573 35,000  Level FlightAware
07:20AM 41.2230 12.3650 125° Southeast 497 572 35,000  Level FlightAware
07:20AM 41.2030 12.4030 125° Southeast 497 572 35,000  Level FlightAware
07:21AM 41.1130 12.5810 124° Southeast 496 571 35,000  Level FlightAware
07:22AM 41.0670 12.6870 120° Southeast 497 572 35,000  Level FlightAware
07:22AM 41.0240 12.7860 120° Southeast 497 572 35,000  Level FlightAware
07:23AM 40.9580 12.9330 121° Southeast 502 578 35,000  Level FlightAware
07:24AM 40.8970 13.0670 121° Southeast 500 575 35,000  Level FlightAware
07:25AM 40.8530 13.1670 120° Southeast 499 574 35,000  Level FlightAware
07:25AM 40.8010 13.2850 120° Southeast 499 574 35,000  Level FlightAware
07:26AM 40.7500 13.3980 121° Southeast 500 575 35,000  Level FlightAware
07:27AM 40.7000 13.5110 120° Southeast 500 575 35,000  Level FlightAware
07:28AM 40.6480 13.6240 121° Southeast 501 577 35,000  Level FlightAware
07:28AM 40.6050 13.7210 120° Southeast 501 577 35,000  Level FlightAware
07:29AM 40.5540 13.8330 121° Southeast 502 578 35,000  Level FlightAware
07:30AM 40.5010 13.9480 121° Southeast 503 579 35,000  Level FlightAware
07:30AM 40.4480 14.0660 121° Southeast 502 578 35,000  Level FlightAware
07:31AM 40.3990 14.1710 121° Southeast 502 578 35,000  Level FlightAware
07:32AM 40.3480 14.2830 121° Southeast 502 578 35,000  Level FlightAware
07:32AM 40.3000 14.3840 122° Southeast 502 578 35,000  Level FlightAware
07:33AM 40.2470 14.5010 121° Southeast 503 579 35,000  Level FlightAware
07:34AM 40.1980 14.6050 122° Southeast 503 579 35,000  Level FlightAware
07:35AM 40.1520 14.7040 121° Southeast 503 579 35,000  Level FlightAware
07:35AM 40.0960 14.8230 122° Southeast 504 580 35,000  Level FlightAware
07:36AM 40.0450 14.9320 121° Southeast 504 580 35,000  Level FlightAware
07:37AM 39.9940 15.0410 121° Southeast 503 579 35,000  Level FlightAware
07:37AM 39.9400 15.1520 122° Southeast 503 579 35,000  Level FlightAware
07:38AM 39.8970 15.2440 121° Southeast 504 580 35,000  Level FlightAware
07:39AM 39.8590 15.3220 122° Southeast 504 580 35,000  Level FlightAware
07:39AM 39.8030 15.4430 121° Southeast 505 581 35,000  Level FlightAware
07:40AM 39.7490 15.5540 122° Southeast 506 582 35,000  Level FlightAware
07:41AM 39.6990 15.6570 122° Southeast 506 582 35,000  Level FlightAware
07:41AM 39.6460 15.7650 122° Southeast 506 582 35,000  Level FlightAware
07:42AM 39.5910 15.8810 122° Southeast 506 582 35,000  Level FlightAware
07:43AM 39.5510 15.9770 118° Southeast 508 585 35,000  Level FlightAware
07:43AM 39.5090 16.1030 113° Southeast 508 585 35,000  Level FlightAware
07:44AM 39.4710 16.2230 112° Southeast 508 585 35,000  Level FlightAware
07:45AM 39.4410 16.3160 113° Southeast 508 585 35,000  Level FlightAware
07:46AM 39.3970 16.4470 113° Southeast 505 581 35,000  Level FlightAware
07:46AM 39.3590 16.5620 113° Southeast 508 585 35,000  Level FlightAware
07:47AM 39.3200 16.6820 113° Southeast 508 585 35,000  Level FlightAware
07:48AM 39.2760 16.8130 113° Southeast 510 587 35,000  Level FlightAware
07:48AM 39.2410 16.9160 114° Southeast 510 587 35,000  Level FlightAware
07:49AM 39.2040 17.0280 113° Southeast 510 587 35,000  Level FlightAware
07:50AM 39.1660 17.1390 114° Southeast 582 670 35,000  Level FlightAware
07:51AM 39.1040 17.3240 113° Southeast 511 588 35,000  Level FlightAware
07:52AM 39.0660 17.4350 114° Southeast 511 588 35,000  Level FlightAware
07:52AM 39.0260 17.5520 114° Southeast 511 588 35,000  Level FlightAware
07:53AM 39.0030 17.6190 114° Southeast 511 588 35,000  Level FlightAware
07:54AM 38.9240 17.8490 114° Southeast 512 589 35,000  Level FlightAware
07:55AM 38.8690 18.0110 114° Southeast 512 589 35,000  Level FlightAware
07:56AM 38.8260 18.1330 114° Southeast 513 590 35,000  Level FlightAware
07:56AM 38.7960 18.2170 115° Southeast 513 590 35,000  Level FlightAware
07:58AM 38.7270 18.4140 114° Southeast 513 590 35,000  Level FlightAware
07:58AM 38.6700 18.5740 114° Southeast 515 593 35,000  Level FlightAware
07:59AM 38.6250 18.7000 115° Southeast 516 594 35,000  Level FlightAware
08:00AM 38.5860 18.8110 114° Southeast 517 595 35,000  Level FlightAware
08:00AM 38.5460 18.9220 115° Southeast 516 594 35,000  Level FlightAware
08:01AM 38.5100 19.0340 112° Southeast 516 594 35,000  Level FlightAware
08:02AM 38.4750 19.1630 109° East 516 594 35,000  Level FlightAware
08:02AM 38.4450 19.2790 108° East 516 594 35,000  Level FlightAware
08:03AM 38.4110 19.4090 108° East 517 595 35,000  Level FlightAware
08:04AM 38.3800 19.5240 109° East 518 596 35,000  Level FlightAware
08:05AM 38.3500 19.6370 109° East 516 594 35,000  Level FlightAware
08:05AM 38.3140 19.7700 109° East 516 594 35,000  Level FlightAware
08:06AM 38.2830 19.8850 109° East 517 595 35,000  Level FlightAware
08:07AM 38.2480 20.0150 109° East 518 596 35,000  Level FlightAware
08:07AM 38.2170 20.1280 109° East 518 596 35,000  Level FlightAware
08:08AM 38.1840 20.2460 110° East 518 596 35,000  Level FlightAware
08:09AM 38.1480 20.3760 109° East 518 596 35,000  Level FlightAware
08:09AM 38.1160 20.4910 109° East 521 600 35,000  Level FlightAware
08:10AM 38.0850 20.5780 114° Southeast 522 601 35,000  Level FlightAware
08:11AM 38.0130 20.7690 116° Southeast 524 603 35,000  Level FlightAware
08:12AM 37.9530 20.9270 116° Southeast 526 605 35,000  Level FlightAware
08:13AM 37.9090 21.0440 115° Southeast 526 605 35,000  Level FlightAware
08:13AM 37.8880 21.1000 115° Southeast 527 606 35,000  Level FlightAware
08:14AM 37.8350 21.2380 116° Southeast 527 606 35,000  Level FlightAware
08:15AM 37.7920 21.3490 116° Southeast 527 606 35,000  Level FlightAware
08:15AM 37.7430 21.4770 116° Southeast 529 609 35,000  Level FlightAware
08:16AM 37.7000 21.5850 117° Southeast 529 609 35,000  Level FlightAware
08:17AM 37.6520 21.7100 116° Southeast 530 610 35,000  Level FlightAware
08:17AM 37.6060 21.8260 117° Southeast 530 610 35,000 180 Level FlightAware
08:18AM 37.5650 21.9320 116° Southeast 533 613 35,300 960 Climbing FlightAware
08:19AM 37.5150 22.0600 116° Southeast 533 613 36,400 1,200 Climbing FlightAware
08:19AM 37.4740 22.1630 117° Southeast 529 609 37,000 360 Climbing FlightAware
08:20AM 37.4270 22.2840 116° Southeast 530 610 37,000  Level FlightAware
08:21AM 37.3840 22.4080 114° Southeast 528 608 37,000  Level FlightAware
08:22AM 37.3480 22.5300 110° East 529 609 37,000  Level FlightAware
08:22AM 37.3190 22.6310 110° East 529 609 37,000  Level FlightAware
08:23AM 37.2780 22.7720 110° East 531 611 37,000  Level FlightAware
08:24AM 37.2420 22.8940 110° East 532 612 37,000  Level FlightAware
08:24AM 37.2050 23.0210 110° East 535 616 37,000  Level FlightAware
08:25AM 37.1690 23.1410 111° Southeast 536 617 37,000  Level FlightAware
08:26AM 37.1340 23.2570 111° Southeast 537 618 37,000  Level FlightAware
08:27AM 37.0970 23.3800 111° Southeast 538 619 37,000  Level FlightAware
08:27AM 37.0600 23.5050 110° East 539 620 37,000  Level FlightAware
08:28AM 37.0210 23.6310 111° Southeast 539 620 37,000  Level FlightAware
08:29AM 36.9840 23.7530 111° Southeast 539 620 37,000  Level FlightAware
08:29AM 36.9460 23.8780 111° Southeast 540 621 37,000  Level FlightAware
08:30AM 36.9090 23.9980 111° Southeast 540 621 37,000  Level FlightAware
08:31AM 36.8760 24.1050 111° Southeast 540 621 37,000  Level FlightAware
08:31AM 36.8340 24.2420 111° Southeast 540 621 37,000  Level FlightAware
08:32AM 36.7970 24.3580 112° Southeast 540 621 37,000  Level FlightAware
08:33AM 36.7600 24.4770 111° Southeast 541 623 37,000  Level FlightAware
08:33AM 36.7210 24.5980 112° Southeast 541 623 37,000  Level FlightAware
08:34AM 36.6760 24.7170 115° Southeast 543 625 37,000  Level FlightAware
08:35AM 36.6350 24.8280 115° Southeast 540 621 37,000  Level FlightAware
08:36AM 36.5840 24.9670 115° Southeast 543 625 37,000  Level FlightAware
08:36AM 36.5440 25.0750 115° Southeast 544 626 37,000  Level FlightAware
08:37AM 36.5040 25.1860 114° Southeast 545 627 37,000  Level FlightAware
08:38AM 36.4540 25.3200 115° Southeast 547 629 37,000  Level FlightAware
08:38AM 36.4110 25.4370 115° Southeast 548 631 37,000  Level FlightAware
08:39AM 36.3650 25.5600 115° Southeast 549 632 37,000  Level FlightAware
08:40AM 36.3220 25.6770 114° Southeast 549 632 37,000  Level FlightAware
08:41AM 36.2750 25.8030 115° Southeast 551 634 37,000  Level FlightAware
08:41AM 36.2300 25.9200 115° Southeast 551 634 37,000  Level FlightAware
08:42AM 36.1810 26.0490 115° Southeast 552 635 37,000  Level FlightAware
08:43AM 36.1390 26.1600 115° Southeast 553 636 37,000  Level FlightAware
08:43AM 36.0950 26.2780 115° Southeast 553 636 37,000  Level FlightAware
08:44AM 36.0510 26.3920 115° Southeast 554 638 37,000  Level FlightAware
08:45AM 36.0000 26.5230 116° Southeast 554 638 37,000  Level FlightAware
08:46AM 35.9580 26.6320 115° Southeast 555 639 37,000  Level FlightAware
08:46AM 35.8960 26.7890 116° Southeast 555 639 37,000  Level FlightAware
08:47AM 35.8500 26.9100 115° Southeast 555 639 37,000  Level FlightAware
08:48AM 35.8110 27.0050 117° Southeast 556 640 37,000  Level FlightAware
08:48AM 35.7700 27.1110 115° Southeast 557 641 37,000  Level FlightAware
08:49AM 35.7240 27.2310 115° Southeast 558 642 37,000  Level FlightAware
08:50AM 35.6800 27.3430 116° Southeast 558 642 37,000  Level FlightAware
08:51AM 35.6440 27.4390 115° Southeast 558 642 37,000  Level FlightAware
08:53AM 35.5124 27.7379 118° Southeast  Level Estimated
08:53AM 35.4630 27.8840 118° Southeast 553 636 37,000  Level FlightAware
08:54AM 35.4020 28.0360 116° Southeast 555 639 37,000  Level FlightAware
08:54AM 35.3520 28.1570 117° Southeast 557 641 37,000  Level FlightAware
08:55AM 35.3090 28.2650 116° Southeast 558 642 37,000  Level FlightAware
08:56AM 35.2580 28.3890 117° Southeast 559 643 37,000  Level FlightAware
08:56AM 35.2120 28.5020 116° Southeast 560 644 37,000  Level FlightAware
08:57AM 35.1650 28.6150 117° Southeast 559 643 37,000  Level FlightAware
08:58AM 35.1190 28.7250 117° Southeast 37,000  Level FlightAware
08:58AM 35.0700 28.8460 116° Southeast 555 639 37,000  Level FlightAware
08:59AM 35.0120 28.9860 117° Southeast 556 640 37,000  Level FlightAware
09:00AM 34.9680 29.0930 117° Southeast 556 640 37,000  Level FlightAware
09:01AM 34.9160 29.2150 117° Southeast 554 638 37,000  Level FlightAware
09:02AM 34.8150 29.4540 117° Southeast 550 633 37,000  Level FlightAware
09:03AM 34.7590 29.5890 117° Southeast 546 628 37,000  Level FlightAware
09:04AM 34.7120 29.6960 118° Southeast 545 627 37,000  Level FlightAware
09:04AM 34.6600 29.8190 117° Southeast 544 626 37,000  Level FlightAware
09:05AM 34.6220 29.9130 116° Southeast 543 625 37,000  Level FlightAware
09:06AM 34.5620 30.0470 119° Southeast 543 625 37,000  Level FlightAware
09:07AM 34.4230 30.3330 121° Southeast 544 626 37,000  Level FlightAware
09:08AM 34.4329 30.3074 121° Southeast  Level Estimated
09:08AM 34.3720 30.4380 120° Southeast 544 626 37,000  Level FlightAware
09:09AM 34.3220 30.5440 120° Southeast 543 625 37,000  Level FlightAware
09:09AM 34.2890 30.6120 120° Southeast 544 626 37,000  Level FlightAware
09:10AM 34.2380 30.7170 120° Southeast 544 626 37,000  Level FlightAware
09:11AM 34.1560 30.8840 121° Southeast 544 626 37,000  Level FlightAware
09:12AM 34.0820 31.0360 120° Southeast 544 626 37,000  Level FlightAware
09:13AM 34.0430 31.1170 120° Southeast 544 626 37,000  Level FlightAware
09:13AM 33.9810 31.2420 121° Southeast 544 626 37,000  Level FlightAware
09:14AM 33.9280 31.3490 121° Southeast 543 625 37,000  Level FlightAware
09:15AM 33.8760 31.4550 121° Southeast 543 625 37,000  Level FlightAware
09:15AM 33.8380 31.5330 120° Southeast 542 624 37,000  Level FlightAware
09:16AM 33.7860 31.6360 121° Southeast 540 621 37,000  Level FlightAware
09:17AM 33.7230 31.7620 121° Southeast 539 620 37,000  Level FlightAware
09:17AM 33.6590 31.8900 121° Southeast 538 619 37,000  Level FlightAware
09:18AM 33.6260 31.9570 121° Southeast 537 618 37,000  Level FlightAware
09:19AM 33.5630 32.0820 121° Southeast 537 618 37,000  Level FlightAware
09:19AM 33.5100 32.1860 121° Southeast 537 618 37,000  Level FlightAware
09:20AM 33.4440 32.3160 121° Southeast 537 618 37,000 -300 Level FlightAware
09:21AM 33.3700 32.4610 121° Southeast 525 604 36,500 -480 Descending FlightAware
09:22AM 33.3240 32.5540 121° Southeast 523 602 36,200 -1,140 Descending FlightAware
09:23AM 33.2650 32.6680 122° Southeast 509 586 34,900 -2,040 Descending FlightAware
09:23AM 33.2230 32.7490 122° Southeast 500 575 33,700 -2,220 Descending FlightAware
09:24AM 33.1450 32.9020 121° Southeast 493 567 31,400 -2,160 Descending FlightAware
09:25AM 33.0860 33.0170 121° Southeast 486 559 29,500 -2,220 Descending FlightAware
09:26AM 33.0150 33.1540 122° Southeast 467 537 27,300 -1,740 Descending FlightAware
09:27AM 32.9710 33.2380 122° Southeast 466 536 26,700 -2,100 Descending FlightAware
09:27AM 32.9230 33.3290 122° Southeast 449 517 24,500 -2,640 Descending FlightAware
09:28AM 32.8570 33.4580 121° Southeast 428 493 22,400 -1,980 Descending FlightAware
09:29AM 32.8170 33.5330 122° Southeast 419 482 21,200 -1,800 Descending FlightAware
09:30AM 32.7700 33.6210 122° Southeast 388 447 19,900 -1,680 Descending FlightAware
09:30AM 32.7400 33.6790 122° Southeast 366 421 19,000 -1,500 Descending FlightAware
09:31AM 32.7110 33.7350 122° Southeast 360 414 18,200 -1,500 Descending FlightAware
09:32AM 32.6690 33.8140 122° Southeast 350 403 17,000 -1,500 Descending FlightAware
09:32AM 32.6380 33.8720 122° Southeast 342 394 16,100 -1,500 Descending FlightAware
09:33AM 32.6020 33.9410 122° Southeast 333 383 15,100 -1,440 Descending FlightAware
09:34AM 32.5670 34.0050 123° Southeast 325 374 14,100 -1,380 Descending FlightAware
09:35AM 32.5330 34.0690 122° Southeast 316 364 13,200 -1,320 Descending FlightAware
09:35AM 32.4970 34.1360 122° Southeast 309 356 12,200 -1,200 Descending FlightAware
09:36AM 32.4640 34.1850 129° Southeast 301 346 11,600 -1,260 Descending FlightAware
09:37AM 32.4250 34.2320 135° Southeast 297 342 10,600 -1,320 Descending FlightAware
09:37AM 32.3840 34.2790 136° Southeast 289 333 9,800 -1,260 Descending FlightAware
09:38AM 32.3540 34.3150 135° Southeast 286 329 9,100 -1,200 Descending FlightAware
09:38AM 32.3290 34.3440 136° Southeast 290 334 8,700 -540 Descending FlightAware
09:39AM 32.3030 34.3750 135° Southeast 289 333 8,600 -180 Descending FlightAware
09:39AM 32.2930 34.3870 135° Southeast 289 333 8,600  Level FlightAware
09:39AM 32.2730 34.4100 136° Southeast 289 333 8,600  Level FlightAware
09:40AM 32.2530 34.4340 135° Southeast 289 333 8,600  Level FlightAware
09:43AM 32.0383 34.8029 125° Southeast  Level FlightAware Approximate
09:44AM 32.0000 34.8667 125° Southeast  Level FlightAware Approximate
09:45AM 32.0095 34.8769 125° Southeast  Level Estimated
09:46AM 32.0095 34.8769 125° Southeast  Level Estimated
09:47AM 32.0095 34.8769 125° Southeast  Level Estimated
09:48AM 32.0095 34.8769 125° Southeast  Level Estimated
09:49AM 32.0095 34.8769 125° Southeast  Level Estimated
09:50AM 32.0095 34.8769 125° Southeast  Level Estimated
09:51AM 32.0095 34.8769 125° Southeast  Level Estimated